createdAt,value
2018-05-13T00:02:21.046Z,58.50
2018-05-13T00:04:46.999Z,58.46
2018-05-13T00:07:12.961Z,58.38
2018-05-13T00:09:38.908Z,58.54
2018-05-13T00:12:04.878Z,58.49
2018-05-13T00:14:30.815Z,58.54
2018-05-13T00:16:56.779Z,58.56
2018-05-13T00:19:22.773Z,58.62
2018-05-13T00:21:48.739Z,58.30
2018-05-13T00:24:14.712Z,58.67
2018-05-13T00:26:40.694Z,58.41
2018-05-13T00:29:06.688Z,58.78
2018-05-13T00:31:32.656Z,58.81
2018-05-13T00:33:58.621Z,58.73
2018-05-13T00:36:24.590Z,58.43
2018-05-13T00:38:50.575Z,58.89
2018-05-13T00:41:16.568Z,58.83
2018-05-13T00:43:42.534Z,58.49
2018-05-13T00:46:08.484Z,58.68
2018-05-13T00:48:34.433Z,58.63
2018-05-13T00:51:00.439Z,58.69
2018-05-13T00:53:26.404Z,58.52
2018-05-13T00:55:52.366Z,58.80
2018-05-13T00:58:18.329Z,58.65
2018-05-13T01:00:44.308Z,58.62
2018-05-13T01:03:10.280Z,58.55
2018-05-13T01:05:36.225Z,58.55
2018-05-13T01:08:02.207Z,58.11
2018-05-13T01:10:28.168Z,58.51
2018-05-13T01:12:54.127Z,58.43
2018-05-13T01:15:20.089Z,58.65
2018-05-13T01:17:46.036Z,58.97
2018-05-13T01:20:12.012Z,59.02
2018-05-13T01:22:39.031Z,59.10
2018-05-13T01:25:05.027Z,58.89
2018-05-13T01:27:31.020Z,59.05
2018-05-13T01:29:56.983Z,58.56
2018-05-13T01:32:22.959Z,58.49
2018-05-13T01:34:48.924Z,58.62
2018-05-13T01:37:14.875Z,58.57
2018-05-13T01:39:40.849Z,58.44
2018-05-13T01:42:06.827Z,58.55
2018-05-13T01:44:32.796Z,58.48
2018-05-13T01:46:58.763Z,58.81
2018-05-13T01:49:24.749Z,58.49
2018-05-13T01:51:50.715Z,58.34
2018-05-13T01:54:16.644Z,58.36
2018-05-13T01:56:42.597Z,58.71
2018-05-13T01:59:08.580Z,58.44
2018-05-13T02:01:34.554Z,58.47
2018-05-13T02:04:00.503Z,58.72
2018-05-13T02:06:26.524Z,58.81
2018-05-13T02:08:52.478Z,58.82
2018-05-13T02:11:18.518Z,58.89
2018-05-13T02:13:44.427Z,59.12
2018-05-13T02:16:10.392Z,58.81
2018-05-13T02:18:36.348Z,58.46
2018-05-13T02:21:02.310Z,58.63
2018-05-13T02:23:28.263Z,58.87
2018-05-13T02:25:54.234Z,58.52
2018-05-13T02:28:20.197Z,58.79
2018-05-13T02:30:46.168Z,58.68
2018-05-13T02:33:12.155Z,58.59
2018-05-13T02:35:38.113Z,58.56
2018-05-13T02:38:04.090Z,58.63
2018-05-13T02:40:30.048Z,58.59
2018-05-13T02:42:56.032Z,58.63
2018-05-13T02:45:21.993Z,58.54
2018-05-13T02:47:47.978Z,58.74
2018-05-13T02:50:13.981Z,58.50
2018-05-13T02:52:39.959Z,59.15
2018-05-13T02:55:05.907Z,59.07
2018-05-13T02:57:31.873Z,59.06
2018-05-13T02:59:57.845Z,58.61
2018-05-13T03:02:23.808Z,59.00
2018-05-13T03:04:49.822Z,58.86
2018-05-13T03:07:15.777Z,58.84
2018-05-13T03:09:41.740Z,58.45
2018-05-13T03:12:07.779Z,58.59
2018-05-13T03:14:33.743Z,58.40
2018-05-13T03:16:59.700Z,58.79
2018-05-13T03:19:25.665Z,58.54
2018-05-13T03:21:51.615Z,58.59
2018-05-13T03:24:17.573Z,58.49
2018-05-13T03:26:43.534Z,58.69
2018-05-13T03:29:09.508Z,58.54
2018-05-13T03:31:35.495Z,58.71
2018-05-13T03:34:01.447Z,58.91
2018-05-13T03:36:27.399Z,58.70
2018-05-13T03:38:53.373Z,58.91
2018-05-13T03:41:19.323Z,59.03
2018-05-13T03:43:45.285Z,59.11
2018-05-13T03:46:11.246Z,59.43
2018-05-13T03:48:37.200Z,59.05
2018-05-13T03:51:03.143Z,58.87
2018-05-13T03:53:29.152Z,58.87
2018-05-13T03:55:55.115Z,59.22
2018-05-13T03:58:21.071Z,59.16
2018-05-13T04:00:47.072Z,58.82
2018-05-13T04:03:13.045Z,58.89
2018-05-13T04:05:41.041Z,58.92
2018-05-13T04:08:07.024Z,58.53
2018-05-13T04:10:32.996Z,58.94
2018-05-13T04:12:58.953Z,58.86
2018-05-13T04:15:24.921Z,58.85
2018-05-13T04:17:50.870Z,58.90
2018-05-13T04:20:16.837Z,58.87
2018-05-13T04:22:42.812Z,58.76
2018-05-13T04:25:08.778Z,59.10
2018-05-13T04:27:34.757Z,58.89
2018-05-13T04:30:00.715Z,59.19
2018-05-13T04:32:26.676Z,59.49
2018-05-13T04:34:52.623Z,59.06
2018-05-13T04:37:18.577Z,59.26
2018-05-13T04:39:44.524Z,59.49
2018-05-13T04:42:10.479Z,59.25
2018-05-13T04:44:36.425Z,59.04
2018-05-13T04:47:02.392Z,59.08
2018-05-13T04:49:28.353Z,59.06
2018-05-13T04:51:54.327Z,59.18
2018-05-13T04:54:20.364Z,58.94
2018-05-13T04:56:46.309Z,58.96
2018-05-13T04:59:12.258Z,58.71
2018-05-13T05:01:38.202Z,59.21
2018-05-13T05:04:04.175Z,58.97
2018-05-13T05:06:30.122Z,58.80
2018-05-13T05:08:56.155Z,59.04
2018-05-13T05:11:22.138Z,59.11
2018-05-13T05:13:48.093Z,59.13
2018-05-13T05:16:14.096Z,59.16
2018-05-13T05:18:40.071Z,59.45
2018-05-13T05:21:06.033Z,59.44
2018-05-13T05:23:32.029Z,59.20
2018-05-13T05:25:57.971Z,59.67
2018-05-13T05:28:23.935Z,59.43
2018-05-13T05:30:49.898Z,59.25
2018-05-13T05:33:15.855Z,59.11
2018-05-13T05:35:41.901Z,58.92
2018-05-13T05:38:07.810Z,59.09
2018-05-13T05:40:33.811Z,59.22
2018-05-13T05:42:59.765Z,59.16
2018-05-13T05:45:25.709Z,59.15
2018-05-13T05:47:51.679Z,58.94
2018-05-13T05:50:17.621Z,58.67
2018-05-13T05:52:43.603Z,59.19
2018-05-13T05:55:09.564Z,59.05
2018-05-13T05:57:35.548Z,58.71
2018-05-13T06:00:01.502Z,59.12
2018-05-13T06:02:27.448Z,59.05
2018-05-13T06:04:53.393Z,59.19
2018-05-13T06:07:19.376Z,59.36
2018-05-13T06:09:45.312Z,59.62
2018-05-13T06:12:11.283Z,59.73
2018-05-13T06:14:37.236Z,59.47
2018-05-13T06:17:03.204Z,59.56
2018-05-13T06:19:29.220Z,59.48
2018-05-13T06:21:55.233Z,59.30
2018-05-13T06:24:21.145Z,59.06
2018-05-13T06:26:47.097Z,59.18
2018-05-13T06:29:13.055Z,58.89
2018-05-13T06:31:39.004Z,59.16
2018-05-13T06:34:04.967Z,59.27
2018-05-13T06:36:30.922Z,59.17
2018-05-13T06:38:56.873Z,59.40
2018-05-13T06:41:22.863Z,58.89
2018-05-13T06:43:48.813Z,59.34
2018-05-13T06:46:14.792Z,59.22
2018-05-13T06:48:40.858Z,59.27
2018-05-13T06:51:06.974Z,59.26
2018-05-13T06:53:32.797Z,59.64
2018-05-13T06:55:58.880Z,59.58
2018-05-13T06:58:24.844Z,59.45
2018-05-13T07:00:50.819Z,59.88
2018-05-13T07:03:16.824Z,59.57
2018-05-13T07:05:42.793Z,59.50
2018-05-13T07:08:08.767Z,58.61
2018-05-13T07:10:34.718Z,58.45
2018-05-13T07:13:00.684Z,58.86
2018-05-13T07:15:26.653Z,58.47
2018-05-13T07:17:52.613Z,58.60
2018-05-13T07:20:18.585Z,59.00
2018-05-13T07:22:44.543Z,59.07
2018-05-13T07:25:10.493Z,59.32
2018-05-13T07:27:36.441Z,59.15
2018-05-13T07:30:02.411Z,58.74
2018-05-13T07:32:28.386Z,59.06
2018-05-13T07:34:54.409Z,58.86
2018-05-13T07:37:20.401Z,58.92
2018-05-13T07:39:46.417Z,58.93
2018-05-13T07:42:12.372Z,59.16
2018-05-13T07:44:38.340Z,59.39
2018-05-13T07:47:04.330Z,59.41
2018-05-13T07:49:30.284Z,59.20
2018-05-13T07:51:56.285Z,59.16
2018-05-13T07:54:22.260Z,59.10
2018-05-13T07:56:48.267Z,59.27
2018-05-13T07:59:14.232Z,59.21
2018-05-13T08:01:40.183Z,59.40
2018-05-13T08:04:06.133Z,59.14
2018-05-13T08:06:32.104Z,59.16
2018-05-13T08:08:58.053Z,59.15
2018-05-13T08:11:24.036Z,59.27
2018-05-13T08:13:49.985Z,59.17
2018-05-13T08:16:15.957Z,59.16
2018-05-13T08:18:41.935Z,59.34
2018-05-13T08:21:07.907Z,59.36
2018-05-13T08:23:33.940Z,59.14
2018-05-13T08:25:59.919Z,59.13
2018-05-13T08:28:25.905Z,59.49
2018-05-13T08:30:51.909Z,59.58
2018-05-13T08:33:17.889Z,59.21
2018-05-13T08:35:43.872Z,59.79
2018-05-13T08:38:09.904Z,59.55
2018-05-13T08:40:35.868Z,59.73
2018-05-13T08:43:01.860Z,59.75
2018-05-13T08:45:27.905Z,59.80
2018-05-13T08:47:57.821Z,59.53
2018-05-13T08:50:23.830Z,59.58
2018-05-13T08:52:49.876Z,59.66
2018-05-13T08:55:15.900Z,59.68
2018-05-13T08:57:41.886Z,60.26
2018-05-13T09:00:07.860Z,60.19
2018-05-13T09:02:33.841Z,60.11
2018-05-13T09:04:59.797Z,59.79
2018-05-13T09:07:25.774Z,59.52
2018-05-13T09:09:51.733Z,59.17
2018-05-13T09:12:17.689Z,59.83
2018-05-13T09:14:43.641Z,59.87
2018-05-13T09:17:09.615Z,59.78
2018-05-13T09:19:35.597Z,60.14
2018-05-13T09:22:01.568Z,60.27
2018-05-13T09:24:27.516Z,60.00
2018-05-13T09:26:53.570Z,60.14
2018-05-13T09:29:19.600Z,60.01
2018-05-13T09:31:45.632Z,59.96
2018-05-13T09:34:11.643Z,59.60
2018-05-13T09:36:38.716Z,59.91
2018-05-13T09:39:04.720Z,59.54
2018-05-13T09:41:30.680Z,59.67
2018-05-13T09:43:56.714Z,60.12
2018-05-13T09:46:22.739Z,60.22
2018-05-13T09:48:52.543Z,60.17
2018-05-13T09:51:18.585Z,59.97
2018-05-13T09:53:44.531Z,59.96
2018-05-13T09:56:10.516Z,59.58
2018-05-13T09:58:36.464Z,59.66
2018-05-13T10:01:03.506Z,59.63
2018-05-13T10:03:29.532Z,59.88
2018-05-13T10:05:55.526Z,60.16
2018-05-13T10:08:21.486Z,59.81
2018-05-13T10:10:47.503Z,59.69
2018-05-13T10:13:13.460Z,59.45
2018-05-13T10:15:39.483Z,59.28
2018-05-13T10:18:05.460Z,59.48
2018-05-13T10:20:31.416Z,59.91
2018-05-13T10:22:57.395Z,59.87
2018-05-13T10:25:23.363Z,60.01
2018-05-13T10:27:49.355Z,59.81
2018-05-13T10:30:15.321Z,60.12
2018-05-13T10:32:41.288Z,60.17
2018-05-13T10:35:07.238Z,60.48
2018-05-13T10:37:33.270Z,60.52
2018-05-13T10:39:59.255Z,60.20
2018-05-13T10:42:25.305Z,60.13
2018-05-13T10:44:51.238Z,59.76
2018-05-13T10:47:17.249Z,60.27
2018-05-13T10:49:43.205Z,60.16
2018-05-13T10:52:09.184Z,60.36
2018-05-13T10:54:35.158Z,60.36
2018-05-13T10:57:01.119Z,60.33
2018-05-13T10:59:27.076Z,60.23
2018-05-13T11:01:53.058Z,60.23
2018-05-13T11:04:19.015Z,60.42
2018-05-13T11:06:44.951Z,60.37
2018-05-13T11:09:10.917Z,60.34
2018-05-13T11:11:36.878Z,60.21
2018-05-13T11:14:02.860Z,60.10
2018-05-13T11:16:28.824Z,60.44
2018-05-13T11:18:54.797Z,60.63
2018-05-13T11:21:20.746Z,60.17
2018-05-13T11:23:46.749Z,60.34
2018-05-13T11:26:12.710Z,60.54
2018-05-13T11:28:38.675Z,60.30
2018-05-13T11:31:04.653Z,60.52
2018-05-13T11:33:30.612Z,60.21
2018-05-13T11:35:56.591Z,60.10
2018-05-13T11:38:22.547Z,60.39
2018-05-13T11:40:48.505Z,60.44
2018-05-13T11:43:14.476Z,60.62
2018-05-13T11:45:40.466Z,60.53
2018-05-13T11:48:06.578Z,60.63
2018-05-13T11:50:32.559Z,60.52
2018-05-13T11:52:58.526Z,60.52
2018-05-13T11:55:24.503Z,60.59
2018-05-13T11:57:50.472Z,60.56
2018-05-13T12:00:16.422Z,60.45
2018-05-13T12:02:42.418Z,60.64
2018-05-13T12:05:08.372Z,60.50
2018-05-13T12:07:34.411Z,60.47
2018-05-13T12:10:00.392Z,60.37
2018-05-13T12:12:26.370Z,60.40
2018-05-13T12:14:52.462Z,60.65
2018-05-13T12:17:18.442Z,60.50
2018-05-13T12:19:44.412Z,60.50
2018-05-13T12:22:10.395Z,60.67
2018-05-13T12:24:36.364Z,60.44
2018-05-13T12:27:02.391Z,60.58
2018-05-13T12:29:28.420Z,60.72
2018-05-13T12:31:54.420Z,60.63
2018-05-13T12:34:20.485Z,60.63
2018-05-13T12:36:46.594Z,60.63
2018-05-13T12:39:12.602Z,60.73
2018-05-13T12:41:38.618Z,60.65
2018-05-13T12:44:04.595Z,60.62
2018-05-13T12:46:30.578Z,60.33
2018-05-13T12:48:56.638Z,60.41
2018-05-13T12:51:22.601Z,60.59
2018-05-13T12:53:48.622Z,60.31
2018-05-13T12:56:14.765Z,60.56
2018-05-13T12:58:40.653Z,60.59
2018-05-13T13:01:06.608Z,60.53
2018-05-13T13:03:32.602Z,60.75
2018-05-13T13:05:58.565Z,60.41
2018-05-13T13:08:24.537Z,60.65
2018-05-13T13:10:50.506Z,60.54
2018-05-13T13:13:16.501Z,60.51
2018-05-13T13:15:42.487Z,60.63
2018-05-13T13:18:08.439Z,60.91
2018-05-13T13:20:34.398Z,60.79
2018-05-13T13:23:00.407Z,60.63
2018-05-13T13:25:26.357Z,60.63
2018-05-13T13:27:52.355Z,60.72
2018-05-13T13:30:18.345Z,60.77
2018-05-13T13:32:44.296Z,60.79
2018-05-13T13:35:10.304Z,60.69
2018-05-13T13:37:36.328Z,60.94
2018-05-13T13:40:02.523Z,60.78
2018-05-13T13:42:28.512Z,60.61
2018-05-13T13:44:54.464Z,60.81
2018-05-13T13:47:20.491Z,60.62
2018-05-13T13:49:46.446Z,60.63
2018-05-13T13:52:12.477Z,60.73
2018-05-13T13:54:38.441Z,60.74
2018-05-13T13:57:04.416Z,60.67
2018-05-13T13:59:30.417Z,60.68
2018-05-13T14:01:56.434Z,60.71
2018-05-13T14:04:22.473Z,60.75
2018-05-13T14:06:48.431Z,60.68
2018-05-13T14:09:14.387Z,60.93
2018-05-13T14:11:40.362Z,60.96
2018-05-13T14:14:06.357Z,60.92
2018-05-13T14:16:32.338Z,60.79
2018-05-13T14:18:58.298Z,60.83
2018-05-13T14:21:24.264Z,60.42
2018-05-13T14:23:50.322Z,60.88
2018-05-13T14:26:16.217Z,61.01
2018-05-13T14:28:42.204Z,61.03
2018-05-13T14:31:08.265Z,60.92
2018-05-13T14:33:34.283Z,60.88
2018-05-13T14:36:00.289Z,60.80
2018-05-13T14:38:26.246Z,60.51
2018-05-13T14:40:52.351Z,59.98
2018-05-13T14:43:18.302Z,60.82
2018-05-13T14:45:44.317Z,60.78
2018-05-13T14:48:10.272Z,60.85
2018-05-13T14:50:36.254Z,61.00
2018-05-13T14:53:02.272Z,61.21
2018-05-13T14:55:28.348Z,61.32
2018-05-13T14:57:54.318Z,61.25
2018-05-13T15:00:20.309Z,61.04
2018-05-13T15:02:46.301Z,61.00
2018-05-13T15:05:12.310Z,61.08
2018-05-13T15:07:38.295Z,60.88
2018-05-13T15:10:04.294Z,61.04
2018-05-13T15:12:30.246Z,61.22
2018-05-13T15:14:56.227Z,61.14
2018-05-13T15:17:22.183Z,61.32
2018-05-13T15:19:48.141Z,61.47
2018-05-13T15:22:14.102Z,61.36
2018-05-13T15:24:40.089Z,61.46
2018-05-13T15:27:06.065Z,61.32
2018-05-13T15:29:32.125Z,61.48
2018-05-13T15:31:58.081Z,61.46
2018-05-13T15:34:24.071Z,61.71
2018-05-13T15:36:51.037Z,61.60
2018-05-13T15:39:17.015Z,61.67
2018-05-13T15:41:42.973Z,61.39
2018-05-13T15:44:08.937Z,61.26
2018-05-13T15:46:34.936Z,61.31
2018-05-13T15:49:00.933Z,61.16
2018-05-13T15:51:26.914Z,61.09
2018-05-13T15:53:52.889Z,61.03
2018-05-13T15:56:18.861Z,61.19
2018-05-13T15:58:44.994Z,61.06
2018-05-13T16:01:10.958Z,60.92
2018-05-13T16:03:36.932Z,60.89
2018-05-13T16:06:02.934Z,60.97
2018-05-13T16:08:28.905Z,61.13
2018-05-13T16:10:54.901Z,60.95
2018-05-13T16:13:22.942Z,60.91
2018-05-13T16:15:48.906Z,61.08
2018-05-13T16:18:14.873Z,60.99
2018-05-13T16:20:40.841Z,61.01
2018-05-13T16:23:06.846Z,61.15
2018-05-13T16:25:32.882Z,61.40
2018-05-13T16:27:58.859Z,61.18
2018-05-13T16:30:24.886Z,61.11
2018-05-13T16:32:50.806Z,60.98
2018-05-13T16:35:16.897Z,61.10
2018-05-13T16:37:42.867Z,61.30
2018-05-13T16:40:08.848Z,61.08
2018-05-13T16:42:34.815Z,60.91
2018-05-13T16:45:00.800Z,61.12
2018-05-13T16:47:26.804Z,60.93
2018-05-13T16:49:52.774Z,60.99
2018-05-13T16:52:18.889Z,60.96
2018-05-13T16:54:44.864Z,60.91
2018-05-13T16:57:10.864Z,60.92
2018-05-13T16:59:36.862Z,60.93
2018-05-13T17:02:02.849Z,60.79
2018-05-13T17:04:28.925Z,60.91
2018-05-13T17:06:54.907Z,61.09
2018-05-13T17:09:20.919Z,60.99
2018-05-13T17:11:46.857Z,60.80
2018-05-13T17:14:12.874Z,61.30
2018-05-13T17:16:38.989Z,61.40
2018-05-13T17:19:04.972Z,61.10
2018-05-13T17:21:30.954Z,61.29
2018-05-13T17:24:00.127Z,60.87
2018-05-13T17:26:26.114Z,60.60
2018-05-13T17:28:52.072Z,60.97
2018-05-13T17:31:18.121Z,61.20
2018-05-13T17:33:44.081Z,61.30
2018-05-13T17:36:10.048Z,61.59
2018-05-13T17:38:36.009Z,61.39
2018-05-13T17:41:02.022Z,61.20
2018-05-13T17:43:28.062Z,61.13
2018-05-13T17:45:54.022Z,61.19
2018-05-13T17:48:20.011Z,61.23
2018-05-13T17:50:45.989Z,60.99
2018-05-13T17:53:11.981Z,61.06
2018-05-13T17:55:37.968Z,61.08
2018-05-13T17:58:03.940Z,60.99
2018-05-13T18:00:29.908Z,61.08
2018-05-13T18:02:55.894Z,61.08
2018-05-13T18:05:21.872Z,61.25
2018-05-13T18:07:47.836Z,61.28
2018-05-13T18:10:13.835Z,61.31
2018-05-13T18:12:39.891Z,61.24
2018-05-13T18:15:05.940Z,61.07
2018-05-13T18:17:31.926Z,61.03
2018-05-13T18:19:57.898Z,60.94
2018-05-13T18:22:23.883Z,60.96
2018-05-13T18:24:49.974Z,61.11
2018-05-13T18:27:15.889Z,61.05
2018-05-13T18:29:41.870Z,61.07
2018-05-13T18:32:07.837Z,61.02
2018-05-13T18:34:34.823Z,60.99
2018-05-13T18:37:00.785Z,60.99
2018-05-13T18:39:26.884Z,60.95
2018-05-13T18:41:52.861Z,60.95
2018-05-13T18:44:18.826Z,60.99
2018-05-13T18:46:45.860Z,60.94
2018-05-13T18:49:11.834Z,61.20
2018-05-13T18:51:37.838Z,61.22
2018-05-13T18:54:03.805Z,61.15
2018-05-13T18:56:29.771Z,61.04
2018-05-13T18:58:55.764Z,61.12
2018-05-13T19:01:21.778Z,61.20
2018-05-13T19:03:47.764Z,61.14
2018-05-13T19:06:13.729Z,61.13
2018-05-13T19:08:39.708Z,61.29
2018-05-13T19:11:05.670Z,61.01
2018-05-13T19:13:31.667Z,60.94
2018-05-13T19:15:57.635Z,60.99
2018-05-13T19:18:23.611Z,60.76
2018-05-13T19:20:49.584Z,60.79
2018-05-13T19:23:15.592Z,61.05
2018-05-13T19:25:41.554Z,60.96
2018-05-13T19:28:07.526Z,60.95
2018-05-13T19:30:33.503Z,60.99
2018-05-13T19:32:59.484Z,61.12
2018-05-13T19:35:25.507Z,60.98
2018-05-13T19:37:51.527Z,61.17
2018-05-13T19:40:19.580Z,60.99
2018-05-13T19:42:45.490Z,60.72
2018-05-13T19:45:11.469Z,61.64
2018-05-13T19:47:37.713Z,60.49
2018-05-13T19:50:05.722Z,61.03
2018-05-13T19:52:31.725Z,60.75
2018-05-13T19:54:57.705Z,60.64
2018-05-13T19:57:23.678Z,60.69
2018-05-13T19:59:49.691Z,60.63
2018-05-13T20:02:15.647Z,60.73
2018-05-13T20:04:41.613Z,60.71
2018-05-13T20:07:07.600Z,60.47
2018-05-13T20:09:33.658Z,60.61
2018-05-13T20:11:59.593Z,60.45
2018-05-13T20:14:25.599Z,60.57
2018-05-13T20:16:51.540Z,60.67
2018-05-13T20:19:17.509Z,60.78
2018-05-13T20:21:43.525Z,60.59
2018-05-13T20:24:09.535Z,60.94
2018-05-13T20:26:35.533Z,60.81
2018-05-13T20:29:01.510Z,60.86
2018-05-13T20:31:27.510Z,60.79
2018-05-13T20:33:53.487Z,61.02
2018-05-13T20:36:19.464Z,60.71
2018-05-13T20:38:45.448Z,60.69
2018-05-13T20:41:11.397Z,60.93
2018-05-13T20:43:37.385Z,60.66
2018-05-13T20:46:03.374Z,60.79
2018-05-13T20:48:29.372Z,60.61
2018-05-13T20:50:55.328Z,60.78
2018-05-13T20:53:21.320Z,60.81
2018-05-13T20:55:47.233Z,60.88
2018-05-13T20:58:13.197Z,60.89
2018-05-13T21:00:39.179Z,60.59
2018-05-13T21:03:05.152Z,60.83
2018-05-13T21:05:31.128Z,60.67
2018-05-13T21:07:57.180Z,60.78
2018-05-13T21:10:24.222Z,60.77
2018-05-13T21:12:50.211Z,60.73
2018-05-13T21:15:16.190Z,61.01
2018-05-13T21:17:42.182Z,60.88
2018-05-13T21:20:08.152Z,61.04
2018-05-13T21:22:36.138Z,60.61
2018-05-13T21:25:02.103Z,60.98
2018-05-13T21:27:28.095Z,60.71
2018-05-13T21:29:54.045Z,60.62
2018-05-13T21:32:20.037Z,61.09
2018-05-13T21:34:46.004Z,61.46
2018-05-13T21:37:11.996Z,61.22
2018-05-13T21:39:37.951Z,60.80
2018-05-13T21:42:04.133Z,61.21
2018-05-13T21:44:30.091Z,60.92
2018-05-13T21:46:56.067Z,61.06
2018-05-13T21:49:22.071Z,60.79
2018-05-13T21:51:48.057Z,60.95
2018-05-13T21:54:14.027Z,61.13
2018-05-13T21:56:40.020Z,61.18
2018-05-13T21:59:05.981Z,60.98
2018-05-13T22:01:31.965Z,60.95
2018-05-13T22:03:57.916Z,61.19
2018-05-13T22:06:23.889Z,61.06
2018-05-13T22:08:49.872Z,60.95
2018-05-13T22:11:15.835Z,61.24
2018-05-13T22:13:41.841Z,61.10
2018-05-13T22:16:07.791Z,60.96
2018-05-13T22:18:33.780Z,60.97
2018-05-13T22:20:59.760Z,61.01
2018-05-13T22:23:25.708Z,60.86
2018-05-13T22:25:51.668Z,60.78
2018-05-13T22:28:17.621Z,60.89
2018-05-13T22:30:43.574Z,60.92
2018-05-13T22:33:09.549Z,61.04
2018-05-13T22:35:35.550Z,60.81
2018-05-13T22:38:01.534Z,60.75
2018-05-13T22:40:27.490Z,60.77
2018-05-13T22:42:53.462Z,60.84
2018-05-13T22:45:19.432Z,60.87
2018-05-13T22:47:45.430Z,61.03
2018-05-13T22:50:11.392Z,61.08
2018-05-13T22:52:37.341Z,60.97
2018-05-13T22:55:03.295Z,60.90
2018-05-13T22:57:29.248Z,61.11
2018-05-13T22:59:55.258Z,61.13
2018-05-13T23:02:21.226Z,61.13
2018-05-13T23:04:47.190Z,60.90
2018-05-13T23:07:13.146Z,60.98
2018-05-13T23:09:39.116Z,60.88
2018-05-13T23:12:05.091Z,60.73
2018-05-13T23:14:31.060Z,60.74
2018-05-13T23:16:57.063Z,60.73
2018-05-13T23:19:22.983Z,60.73
2018-05-13T23:21:48.964Z,60.80
2018-05-13T23:24:15.016Z,60.71
2018-05-13T23:26:41.012Z,60.80
2018-05-13T23:29:07.041Z,60.71
2018-05-13T23:31:33.008Z,60.85
2018-05-13T23:33:58.993Z,60.76
2018-05-13T23:36:24.973Z,61.01
2018-05-13T23:38:50.936Z,60.98
2018-05-13T23:41:16.971Z,60.88
2018-05-13T23:43:42.885Z,61.38
2018-05-13T23:46:08.862Z,60.86
2018-05-13T23:48:34.828Z,61.00
2018-05-13T23:51:00.782Z,60.86
2018-05-13T23:53:26.754Z,60.89
2018-05-13T23:55:52.749Z,60.78
2018-05-13T23:58:18.691Z,60.77
